Tiempo atmosférico en la estación meteorológica de Bailo, Huesca (722 m.)



Fecha
DESCASC
Temp. máxima en grados centígrados (hora)
DESCASC
Temp. mínima en grados centígrados (hora)
DESCASC
Temp. media en grados centígrados
DESCASC
Racha de viento máxima en m/sg (hora)
DESCASC
Velocidad máxima media en intervalos de 10 minutos(hora)
DESCASC
Precipitaciones diarias en mm
DESCASC
Precipitaciones de 00:00 a 06:00 en mm
DESCASC
Precipitaciones de 06:00 a 12:00 en mm
DESCASC
Precipitaciones de 12:00 a 18:00 en mm
DESCASC
Precipitaciones de 18:00 a 24:00 en mm
DESCASC
08-12-2019 9.3 (12:50) 0.4 (08:10) 4.9 11.67 (20:30) 7.78 (20:30) 2.6 0 0 2.6 0
07-12-2019 11.8 (15:50) 0.4 (08:20) 6.1 2.78 (13:50) 1.67 (16:20) 0 0 0 0 0
06-12-2019 11.5 (16:00) 1.7 (08:30) 6.6 3.61 (17:20) 3.33 (17:40) 0 0 0 0 0
05-12-2019 10.8 (15:40) 2.4 (00:00) 6.6 3.89 (13:50) 2.22 (14:10) 0 0 0 0 0
04-12-2019 9.1 (15:40) -1.2 (-00:0) 4 3.06 (19:30) 2.22 (19:30) 0 0 0 0 0
03-12-2019 7.9 (15:30) -1.8 (-00:0) 3.1 3.06 (15:40) 1.94 (14:30) 0 0 0 0 0
02-12-2019 11.2 (15:00) -0.1 (00:00) 5.5 6.39 (16:30) 4.72 (16:30) 0 0 0 0 0
01-12-2019 10.6 (15:40) 2.4 (00:00) 6.5 6.11 (00:20) 3.61 (16:10) 0 0 0 0 0
30-11-2019 13 (14:10) 2.3 (00:00) 7.6 11.94 (16:50) 8.61 (18:10) 6.8 0 0 0 6.8
29-11-2019 13.5 (14:50) 3.4 (00:00) 8.5 9.17 (09:40) 6.39 (09:40) 0.2 0 0.2 0 0
28-11-2019 11.4 (14:10) 6.7 (00:00) 9 6.39 (18:40) 3.89 (17:10) 2.6 0 0 1.6 1
27-11-2019 12.2 (00:50) 5.4 (00:00) 8.8 13.61 (00:40) 8.06 (00:20) 6 2 0 0.2 3.8
26-11-2019 13.7 (15:40) 3.6 (00:00) 8.6 14.17 (20:50) 10.56 (20:50) 4.4 0 0 0 4.4
25-11-2019 12.8 (15:50) 4.3 (00:00) 8.6 3.89 (12:20) 2.22 (14:50) 0.4 0.4 0 0 0
24-11-2019 8.8 (13:40) 3.7 (00:00) 6.3 12.78 (15:00) 9.17 (14:50) 0.6 0.2 0.2 0 0.2
23-11-2019 8.6 (00:00) 4.3 (00:00) 6.5 14.72 (07:10) 11.67 (07:10) 8.6 0 4 3.8 0.8
22-11-2019 8.9 (23:30) 5.2 (00:00) 7 15.83 (13:40) 10.28 (13:00) 26.6 0 2.6 12.2 11.8
21-11-2019 9.5 (14:30) 3.7 (00:00) 6.6 8.33 (23:59) 6.11 (23:20) 0.8 0.6 0.2 0 0
20-11-2019 8.5 (15:10) -0.8 (-00:0) 3.8 7.78 (23:00) 5.83 (10:30) 0 0 0 0 0
19-11-2019 9.2 (16:00) -2.4 (-00:0) 3.4 3.61 (13:50) 2.5 (17:40) 0 0 0 0 0
18-11-2019 5.9 (14:40) 1.3 (00:00) 3.6 14.44 (15:20) 9.72 (13:40) 0.6 0.6 0 0 0
17-11-2019 4.9 (15:10) 0.3 (00:00) 2.6 2.78 (18:00) 2.22 (10:00) 1 0.2 0 0.8 0
16-11-2019 1.2 (00:00) -1.6 (-00:0) -0.2 2.22 (14:10) 1.67 (08:30) 7 0 0 6.6 0.4
15-11-2019 4.2 (15:40) -0.7 (-00:0) 1.7 11.11 (15:40) 7.5 (16:10) 5.8 0 2.2 3.6 0
14-11-2019 8 (14:20) 0 (00:00) 4 10.28 (06:10) 7.22 (06:10) 7.4 2.4 5 0 0
13-11-2019 10.6 (11:30) 4.9 (00:00) 7.8 15.83 (11:20) 11.11 (11:20) 0 0 0 0 0
12-11-2019 -- (--) -- (--) -- -- (--) -- (--) -- 0 -- 0 0
11-11-2019 8.4 (12:50) 3.2 (00:00) 5.8 16.67 (17:20) 11.67 (17:30) 1 0 0 1 0

Gráficas

Temp. máximas Temp. mínimas Temp. medias Precipitaciones Rachas de viento máximas Velocidades máximas media en intervalos de 10 minutos

Datos horarios

Fecha y hora oficial Temperatura (ºC) Velocidad del viento (km/h) Dirección del viento Racha (km/h) Dirección de racha Precipitación (mm) Presión (hPa) Tendencia (hPa) Humedad (%)
2019-12-10 23:00:00 -- -- -- -- -- -- -- -- --
2019-12-10 22:00:00 5 3 Oeste 5 Noroeste 0 -- -- 75
2019-12-10 21:00:00 5.7 5 Noroeste 6 Oeste 0 -- -- 75
2019-12-10 20:00:00 6.3 3 Oeste 5 Noroeste 0 -- -- 71
2019-12-10 19:00:00 7.4 4 Oeste 12 Sudoeste 0 -- -- 65
2019-12-10 18:00:00 9 6 Sur 9 Sudoeste 0 -- -- 64
2019-12-10 17:00:00 9.5 6 Sudoeste 9 Sudoeste 0 -- -- 63
2019-12-10 16:00:00 12.2 5 Sudoeste 11 Sudoeste 0 -- -- 58
2019-12-10 15:00:00 12.3 2 Este 11 Este 0 -- -- 54
2019-12-10 14:00:00 11.2 3 Sudoeste 10 Este 0 -- -- 58
2019-12-10 13:00:00 9.8 5 Este 11 Este 0 -- -- 58
2019-12-10 12:00:00 8.8 7 Este 12 Este 0 -- -- 57
2019-12-10 11:00:00 6.2 4 Sudeste 9 Sudeste 0 -- -- 69
2019-12-10 10:00:00 4.4 6 Sur 11 Sudoeste 0 -- -- 70
2019-12-10 09:00:00 3.3 5 Sur 12 Este 0 -- -- 74
2019-12-10 08:00:00 3.5 7 Sur 15 Norte 0 -- -- 73
2019-12-10 07:00:00 4.8 10 Norte 23 Noroeste 0 -- -- 67
2019-12-10 06:00:00 5.5 16 Noroeste 52 Noroeste 0 -- -- 66
2019-12-10 05:00:00 5.6 34 Noroeste 49 Noroeste 0 -- -- 67
2019-12-10 04:00:00 5.6 33 Noroeste 48 Noroeste 0 -- -- 68
2019-12-10 03:00:00 5.9 33 Noroeste 53 Noroeste 0 -- -- 67
2019-12-10 02:00:00 6.2 29 Noroeste 49 Noroeste 0 -- -- 71
2019-12-10 01:00:00 6.3 31 Noroeste 51 Noroeste 0 -- -- 72
2019-12-10 00:00:00 6.2 33 Noroeste 51 Noroeste 0 -- -- 71
2019-12-09 23:00:00 6.5 35 Noroeste 58 Noroeste 0 -- -- 71
2019-12-09 22:00:00 6.6 35 Noroeste 53 Norte 0 -- -- 76
2019-12-09 21:00:00 6.5 35 Noroeste 57 Noroeste 0 -- -- 76
2019-12-09 20:00:00 6.5 35 Noroeste 51 Noroeste 0 -- -- 77
2019-12-09 19:00:00 6.2 29 Noroeste 49 Norte 0 -- -- 77
2019-12-09 18:00:00 6.8 30 Noroeste 48 Noroeste 0 -- -- 77
2019-12-09 17:00:00 7 32 Noroeste 52 Noroeste 0 -- -- 75
2019-12-09 16:00:00 7.2 30 Noroeste 45 Noroeste 0 -- -- 77
2019-12-09 15:00:00 7.4 26 Noroeste 44 Noroeste 0.2 -- -- 77
2019-12-09 14:00:00 7 22 Noroeste 35 Noroeste 0 -- -- 87
2019-12-09 13:00:00 7.3 21 Noroeste 51 Noroeste 0.4 -- -- 87
2019-12-09 12:00:00 7.2 19 Noroeste 39 Norte 0 -- -- 87
2019-12-09 11:00:00 7.6 28 Noroeste 42 Noroeste 0 -- -- 75
2019-12-09 10:00:00 6.1 13 Norte 36 Noroeste 0.2 -- -- 89
2019-12-09 09:00:00 6.1 9 Noroeste 34 Noroeste 0 -- -- 85
2019-12-09 08:00:00 6.3 22 Noroeste 40 Noroeste 0 -- -- 82
2019-12-09 07:00:00 6.9 32 Noroeste 48 Noroeste 0 -- -- 76
2019-12-09 06:00:00 6.8 39 Noroeste 50 Noroeste 0 -- -- 74
2019-12-09 05:00:00 4.1 6 Noroeste 14 Norte 0.2 -- -- 80
2019-12-09 04:00:00 4.7 4 Noroeste 13 Noroeste 0 -- -- 79
2019-12-09 03:00:00 5.1 6 Noroeste 24 Oeste 0 -- -- 79
2019-12-09 02:00:00 4.8 13 Noroeste 20 Noroeste 0 -- -- 81
2019-12-09 01:00:00 5.9 10 Noroeste 22 Noroeste 0 -- -- 81
2019-12-09 00:00:00 6.7 13 Norte 27 Noroeste 0 -- -- 81
2019-12-08 23:00:00 6.8 21 Oeste 29 Noroeste 0 -- -- 84
2019-12-08 22:00:00 7.5 21 Noroeste 32 Norte 0 -- -- 85
2019-12-08 21:00:00 8.3 21 Noroeste 42 Noroeste 0 -- -- 84
2019-12-08 20:00:00 7.6 14 Noroeste 25 Noroeste 0 -- -- 99
2019-12-08 19:00:00 6.7 3 Sudeste 6 Sudeste 0 -- -- 96
2019-12-08 18:00:00 7.1 0 Calma 5 Sudeste 0.8 -- -- 96
2019-12-08 17:00:00 7.8 3 Nordeste 5 Norte 0.8 -- -- 94
2019-12-08 16:00:00 8.2 3 Sudeste 6 Sudeste 1 -- -- 92
2019-12-08 15:00:00 8.5 3 Noroeste 5 Noroeste 0 -- -- 86
2019-12-08 14:00:00 8.7 0 Calma 12 Norte 0 -- -- 81
2019-12-08 13:00:00 9.1 8 Norte 12 Norte 0 -- -- 83
2019-12-08 12:00:00 6.8 2 Oeste 7 Oeste 0 -- -- 99
2019-12-08 11:00:00 4.2 0 Calma 6 Este 0 -- -- 99
2019-12-08 10:00:00 3 2 Oeste 12 Noroeste 0 -- -- 100
2019-12-08 09:00:00 1.5 3 Sur 9 Sudeste 0 -- -- 98
2019-12-08 08:00:00 0.6 3 Sudeste 4 Sudeste 0 -- -- 98
2019-12-08 07:00:00 0.9 2 Oeste 5 Sudoeste 0 -- -- 97
2019-12-08 06:00:00 2.1 0 Calma 6 Sudeste 0 -- -- 97
2019-12-08 05:00:00 2 4 Noroeste 5 Oeste 0 -- -- 98
2019-12-08 04:00:00 3.2 3 Norte 6 Sudeste 0 -- -- 97
2019-12-08 03:00:00 2.8 0 Calma 4 Noroeste 0 -- -- 96
2019-12-08 02:00:00 3.7 0 Calma 5 Noroeste 0 -- -- 95
2019-12-08 01:00:00 3.7 0 Calma 5 Sudeste 0 -- -- 94
2019-12-08 00:00:00 4 2 Nordeste 6 Noroeste 0 -- -- 94
2019-12-07 23:00:00 5 3 Sudoeste 6 Sur 0 -- -- 91
2019-12-07 22:00:00 4.8 4 Sudeste 5 Noroeste 0 -- -- 93
2019-12-07 21:00:00 5.6 3 Noroeste 4 Noroeste 0 -- -- 88
2019-12-07 20:00:00 6.3 0 Calma 8 Sudoeste 0 -- -- 86
2019-12-07 19:00:00 7.2 4 Sudoeste 7 Sudoeste 0 -- -- 82
2019-12-07 18:00:00 8.2 4 Sudoeste 6 Sudoeste 0 -- -- 80
2019-12-07 17:00:00 9.5 5 Sudoeste 8 Sudoeste 0 -- -- 75
2019-12-07 16:00:00 11.8 5 Sudoeste 8 Sudoeste 0 -- -- 68
2019-12-07 15:00:00 11.2 2 Nordeste 8 Este 0 -- -- 67
2019-12-07 14:00:00 10.7 4 Noroeste 10 Noroeste 0 -- -- 69
2019-12-07 13:00:00 8.6 3 Norte 6 Este 0 -- -- 80
2019-12-07 12:00:00 6.7 3 Nordeste 6 Este 0 -- -- 88
2019-12-07 11:00:00 4.5 3 Este 7 Este 0 -- -- 97
2019-12-07 10:00:00 2.6 0 Calma 3 Sudeste 0 -- -- 99
2019-12-07 09:00:00 1.2 0 Calma 4 Sudoeste 0 -- -- 99
2019-12-07 08:00:00 1 0 Calma 4 Sudoeste 0 -- -- 98
2019-12-07 07:00:00 1.2 2 Nordeste 5 Norte 0 -- -- 97
2019-12-07 06:00:00 1.2 0 Calma 5 Noroeste 0 -- -- 96
2019-12-07 05:00:00 1.2 0 Calma 7 Este 0 -- -- 96
2019-12-07 04:00:00 2.2 4 Noroeste 5 Noroeste 0 -- -- 97
2019-12-07 03:00:00 2 3 Nordeste 7 Sur 0 -- -- 95
2019-12-07 02:00:00 2.7 3 Sudoeste 7 Norte 0 -- -- 96
2019-12-07 01:00:00 3.4 2 Sudeste 6 Noroeste 0 -- -- 94
2019-12-07 00:00:00 3.5 4 Noroeste 6 Noroeste 0 -- -- 93
2019-12-06 23:00:00 3.8 3 Oeste 6 Noroeste 0 -- -- 92
2019-12-06 22:00:00 4.6 2 Noroeste 7 Oeste 0 -- -- 90
2019-12-06 21:00:00 5.5 0 Calma 4 Sudoeste 0 -- -- 85
2019-12-06 20:00:00 6.5 3 Sudoeste 9 Norte 0 -- -- 85
2019-12-06 19:00:00 7.8 6 Sudoeste 8 Sudoeste 0 -- -- 78
2019-12-06 18:00:00 7.9 5 Sur 13 Sudoeste 0 -- -- 80
2019-12-06 17:00:00 9.6 8 Sudoeste 11 Sudoeste 0 -- -- 76
2019-12-06 16:00:00 11.5 0 Calma 4 Sudoeste 0 -- -- 70
2019-12-06 15:00:00 10.8 2 Este 6 Noroeste 0 -- -- 72
2019-12-06 14:00:00 10.4 4 Oeste 8 Oeste 0 -- -- 76
2019-12-06 13:00:00 9.4 3 Norte 8 Este 0 -- -- 81
2019-12-06 12:00:00 6.7 5 Sudeste 8 Sudeste 0 -- -- 95
2019-12-06 11:00:00 4.7 0 Calma 4 Nordeste 0 -- -- 97
2019-12-06 10:00:00 2.8 3 Oeste 7 Noroeste 0 -- -- 97
2019-12-06 09:00:00 2.3 0 Calma 5 Noroeste 0 -- -- 97
2019-12-06 08:00:00 2.6 0 Calma 5 Sudoeste 0 -- -- 96
2019-12-06 07:00:00 2.5 3 Oeste 7 Noroeste 0 -- -- 96
2019-12-06 06:00:00 2.9 0 Calma 5 Sur 0 -- -- 94
2019-12-06 05:00:00 3.4 3 Sur 5 Noroeste 0 -- -- 95
2019-12-06 04:00:00 3.8 2 Este 5 Sudeste 0 -- -- 95
2019-12-06 03:00:00 3.4 4 Sudeste 7 Sudeste 0 -- -- 95
2019-12-06 02:00:00 4.2 3 Sudeste 5 Sudeste 0 -- -- 94
2019-12-06 01:00:00 3.7 0 Calma 4 Sur 0 -- -- 93
2019-12-06 00:00:00 3.7 3 Noroeste 6 Noroeste 0 -- -- 93
2019-12-05 23:00:00 4 4 Noroeste 6 Noroeste 0 -- -- 90
2019-12-05 22:00:00 4.6 3 Oeste 4 Oeste 0 -- -- 89
2019-12-05 21:00:00 5.8 0 Calma 5 Sudeste 0 -- -- 86
2019-12-05 20:00:00 5.8 3 Este 4 Noroeste 0 -- -- 86
2019-12-05 19:00:00 6.6 3 Oeste 7 Sur 0 -- -- 81
2019-12-05 18:00:00 7.5 7 Sudoeste 9 Sudoeste 0 -- -- 81
2019-12-05 17:00:00 8.4 5 Sudoeste 8 Sudoeste 0 -- -- 76
2019-12-05 16:00:00 10.8 3 Noroeste 9 Oeste 0 -- -- 68
2019-12-05 15:00:00 10 2 Nordeste 13 Noroeste 0 -- -- 67
2019-12-05 14:00:00 9.6 7 Noroeste 14 Norte 0 -- -- 70
2019-12-05 13:00:00 7.9 4 Norte 9 Este 0 -- -- 76
2019-12-05 12:00:00 6.2 3 Nordeste 9 Sudeste 0 -- -- 79
2019-12-05 11:00:00 3.7 2 Oeste 7 Este 0 -- -- 93
2019-12-05 10:00:00 2.8 3 Nordeste 6 Sudeste 0 -- -- 94
2019-12-05 09:00:00 2.6 2 Norte 5 Este 0 -- -- 92
2019-12-05 08:00:00 2.5 3 Este 8 Sudeste 0 -- -- 93
2019-12-05 07:00:00 2.8 0 Calma 6 Noroeste 0 -- -- 90
2019-12-05 06:00:00 3 3 Este 8 Sudoeste 0 -- -- 91
2019-12-05 05:00:00 2.8 0 Calma 5 Noroeste 0 -- -- 90
2019-12-05 04:00:00 3 2 Sudoeste 8 Oeste 0 -- -- 91
2019-12-05 03:00:00 3 6 Noroeste 9 Noroeste 0 -- -- 88
2019-12-05 02:00:00 2.9 4 Este 9 Sudoeste 0 -- -- 86
2019-12-05 01:00:00 3.4 2 Norte 6 Noroeste 0 -- -- 83
2019-12-05 00:00:00 3.8 3 Oeste 7 Noroeste 0 -- -- 80
2019-12-04 23:00:00 4.7 2 Oeste 6 Sudoeste 0 -- -- 77
2019-12-04 22:00:00 4.8 4 Oeste 9 Oeste 0 -- -- 77
2019-12-04 21:00:00 6.1 4 Norte 7 Noroeste 0 -- -- 74
2019-12-04 20:00:00 7.2 4 Sudoeste 11 Sudeste 0 -- -- 66
2019-12-04 19:00:00 7.7 3 Sudeste 9 Sudeste 0 -- -- 68
2019-12-04 18:00:00 7.7 2 Noroeste 6 Sur 0 -- -- 70
2019-12-04 17:00:00 8.3 5 Noroeste 8 Oeste 0 -- -- 69
2019-12-04 16:00:00 9.1 2 Este 8 Sudeste 0 -- -- 65
2019-12-04 15:00:00 8.1 4 Este 6 Este 0 -- -- 66
2019-12-04 14:00:00 7.4 2 Sur 7 Sudoeste 0 -- -- 69
2019-12-04 13:00:00 6 3 Nordeste 6 Este 0 -- -- 81
2019-12-04 12:00:00 4.6 2 Sudoeste 8 Sudeste 0 -- -- 85
2019-12-04 11:00:00 3.3 3 Norte 9 Sudeste 0 -- -- 90
2019-12-04 10:00:00 1.5 4 Sur 6 Sudoeste 0 -- -- 98
2019-12-04 09:00:00 -0.6 2 Nordeste 6 Oeste 0 -- -- 97
2019-12-04 08:00:00 -1.1 6 Oeste 8 Oeste 0 -- -- 97
2019-12-04 07:00:00 -0.5 2 Noroeste 6 Oeste 0 -- -- 97
2019-12-04 06:00:00 -0.9 3 Norte 6 Norte 0 -- -- 95
2019-12-04 05:00:00 -0.3 0 Calma 6 Sudoeste 0 -- -- 97
2019-12-04 04:00:00 -0.8 3 Sudeste 6 Sudeste 0 -- -- 96
2019-12-04 03:00:00 -0.1 3 Sudeste 5 Oeste 0 -- -- 96
2019-12-04 02:00:00 0.5 0 Calma 4 Oeste 0 -- -- 95
2019-12-04 01:00:00 0.3 0 Calma 4 Nordeste 0 -- -- 95
2019-12-04 00:00:00 0.7 0 Calma 5 Noroeste 0 -- -- 94
2019-12-03 23:00:00 0.6 3 Noroeste 4 Noroeste 0 -- -- 92
2019-12-03 22:00:00 1.7 2 Sur 6 Sudoeste 0 -- -- 90
2019-12-03 21:00:00 2.4 0 Calma 9 Sur 0 -- -- 86
2019-12-03 20:00:00 2.7 3 Sudoeste 10 Sudoeste 0 -- -- 85
2019-12-03 19:00:00 3.5 4 Sur 8 Sudeste 0 -- -- 84
2019-12-03 18:00:00 4.3 6 Sur 11 Sudoeste 0 -- -- 80
2019-12-03 17:00:00 5.9 5 Sur 9 Norte 0 -- -- 75
2019-12-03 16:00:00 7.6 4 Norte 11 Noroeste 0 -- -- 67
2019-12-03 15:00:00 7.3 3 Nordeste 10 Noroeste 0 -- -- 69
2019-12-03 14:00:00 6.5 3 Norte 9 Noroeste 0 -- -- 71
2019-12-03 13:00:00 5.3 2 Oeste 6 Este 0 -- -- 75
2019-12-03 12:00:00 3.6 3 Norte 6 Noroeste 0 -- -- 77
2019-12-03 11:00:00 2 2 Nordeste 5 Este 0 -- -- 87
2019-12-03 10:00:00 -0.1 0 Calma 6 Este 0 -- -- 93
2019-12-03 09:00:00 -1.1 0 Calma 2 Sudoeste 0 -- -- 96
2019-12-03 08:00:00 -1.7 0 Calma 7 Sudoeste 0 -- -- 94
2019-12-03 07:00:00 -1.4 0 Calma 4 Noroeste 0 -- -- 93
2019-12-03 06:00:00 -1.2 2 Sudoeste 4 Noroeste 0 -- -- 93
2019-12-03 05:00:00 -1 0 Calma 4 Oeste 0 -- -- 93
2019-12-03 04:00:00 -0.6 0 Calma 7 Sudoeste 0 -- -- 91
2019-12-03 03:00:00 0.3 4 Sudoeste 8 Sudoeste 0 -- -- 91
2019-12-03 02:00:00 0.2 2 Sudoeste 5 Sudoeste 0 -- -- 91
2019-12-03 01:00:00 0.5 0 Calma 5 Sudoeste 0 -- -- 90
2019-12-03 00:00:00 1.3 4 Sudoeste 8 Sudoeste 0 -- -- 87
2019-12-02 23:00:00 1.9 4 Sur 8 Sur 0 -- -- 87
2019-12-02 22:00:00 2.7 0 Calma 5 Noroeste 0 -- -- 83
2019-12-02 21:00:00 2.7 4 Noroeste 5 Noroeste 0 -- -- 82
2019-12-02 20:00:00 3.8 3 Sudoeste 5 Sudoeste 0 -- -- 80
2019-12-02 19:00:00 5.2 0 Calma 10 Noroeste 0 -- -- 76
2019-12-02 18:00:00 5.6 9 Noroeste 15 Noroeste 0 -- -- 76
2019-12-02 17:00:00 8.1 13 Noroeste 23 Norte 0 -- -- 69
2019-12-02 16:00:00 10.9 12 Noroeste 16 Norte 0 -- -- 59
2019-12-02 15:00:00 11.2 8 Norte 15 Norte 0 -- -- 61
2019-12-02 14:00:00 10.4 6 Norte 13 Noroeste 0 -- -- 62
2019-12-02 13:00:00 8.7 3 Norte 11 Nordeste 0 -- -- 67
2019-12-02 12:00:00 7 4 Sudeste 8 Sudeste 0 -- -- 77
2019-12-02 11:00:00 4.2 2 Oeste 5 Noroeste 0 -- -- 95
2019-12-02 10:00:00 2.1 0 Calma 4 Noroeste 0 -- -- 97
2019-12-02 09:00:00 0.8 0 Calma 4 Noroeste 0 -- -- 98
2019-12-02 08:00:00 0.1 0 Calma 4 Este 0 -- -- 98
2019-12-02 07:00:00 0.5 4 Oeste 4 Noroeste 0 -- -- 97
2019-12-02 06:00:00 0.3 4 Noroeste 6 Noroeste 0 -- -- 96
2019-12-02 05:00:00 1 3 Noroeste 5 Sur 0 -- -- 95
2019-12-02 04:00:00 0.8 2 Noroeste 8 Noroeste 0 -- -- 96
2019-12-02 03:00:00 2 4 Sur 6 Sur 0 -- -- 96
2019-12-02 02:00:00 1.8 3 Norte 4 Norte 0 -- -- 94
2019-12-02 01:00:00 2.2 3 Noroeste 5 Noroeste 0 -- -- 95
2019-12-02 00:00:00 2.5 0 Calma 6 Noroeste 0 -- -- 93
2019-12-01 23:00:00 2.9 4 Oeste 6 Sudoeste 0 -- -- 92
2019-12-01 22:00:00 3.4 5 Noroeste 7 Noroeste 0 -- -- 90
2019-12-01 21:00:00 4.2 2 Sudoeste 6 Oeste 0 -- -- 87
2019-12-01 20:00:00 4.6 6 Oeste 9 Sudeste 0 -- -- 85
2019-12-01 19:00:00 6.1 2 Noroeste 6 Oeste 0 -- -- 78
2019-12-01 18:00:00 6.6 5 Noroeste 8 Sudoeste 0 -- -- 79
2019-12-01 17:00:00 8.5 6 Oeste 17 Noroeste 0 -- -- 74
2019-12-01 16:00:00 10.6 9 Noroeste 14 Noroeste 0 -- -- 67
2019-12-01 15:00:00 10.2 10 Oeste 13 Noroeste 0 -- -- 73
2019-12-01 14:00:00 9.3 4 Noroeste 10 Noroeste 0 -- -- 80
2019-12-01 13:00:00 7.1 4 Este 10 Noroeste 0 -- -- 99
2019-12-01 12:00:00 5.8 7 Noroeste 12 Noroeste 0 -- -- 99
2019-12-01 11:00:00 4.2 3 Este 6 Sudeste 0 -- -- 99
2019-12-01 10:00:00 3.7 3 Noroeste 5 Nordeste 0 -- -- 98
2019-12-01 09:00:00 3.2 2 Sudeste 5 Oeste 0 -- -- 98
2019-12-01 08:00:00 2.4 3 Oeste 5 Oeste 0 -- -- 98
2019-12-01 07:00:00 2.7 2 Este 7 Oeste 0 -- -- 97
2019-12-01 06:00:00 3.3 2 Sudeste 4 Nordeste 0 -- -- 97
2019-12-01 05:00:00 3.2 2 Norte 6 Noroeste 0 -- -- 97
2019-12-01 04:00:00 3.5 6 Sudoeste 8 Sudoeste 0 -- -- 97
2019-12-01 03:00:00 4.3 5 Sudeste 8 Sudeste 0 -- -- 96
2019-12-01 02:00:00 5 4 Sudoeste 8 Noroeste 0 -- -- 94
2019-12-01 01:00:00 5.8 5 Noroeste 22 Este 0 -- -- 94
2019-12-01 00:00:00 6.2 3 Norte 14 Sudoeste 0 -- -- 94
2019-11-30 23:00:00 6.5 6 Oeste 15 Sudeste 0 -- -- 92
2019-11-30 22:00:00 6.2 7 Oeste 11 Oeste 0 -- -- 96
2019-11-30 21:00:00 6.5 12 Este 27 Norte 2.2 -- -- 96
2019-11-30 20:00:00 7.6 18 Norte 41 Noroeste 4.2 -- -- 92
2019-11-30 19:00:00 10.5 21 Sur 43 Sur 0.4 -- -- 88
2019-11-30 18:00:00 11.7 28 Sur 43 Sur 0 -- -- 79
2019-11-30 17:00:00 11.8 28 Sur 43 Sur 0 -- -- 79
2019-11-30 16:00:00 11.8 23 Sur 34 Sur 0 -- -- 75
2019-11-30 15:00:00 12 21 Sur 30 Sur 0 -- -- 72
2019-11-30 14:00:00 12.7 17 Sur 26 Sudeste 0 -- -- 69
2019-11-30 13:00:00 10.5 17 Sur 34 Sur 0 -- -- 71
2019-11-30 12:00:00 9.5 23 Sur 37 Sudoeste 0 -- -- 65
2019-11-30 11:00:00 9.4 16 Sur 30 Sur 0 -- -- 63
2019-11-30 10:00:00 8.1 15 Sur 23 Sur 0 -- -- 62
2019-11-30 09:00:00 7.1 16 Sur 26 Sur 0 -- -- 69
2019-11-30 08:00:00 6.6 17 Sur 27 Sur 0 -- -- 68
2019-11-30 07:00:00 5.8 22 Sudeste 30 Sudeste 0 -- -- 75
2019-11-30 06:00:00 5.4 19 Sur 28 Sur 0 -- -- 79
2019-11-30 05:00:00 4.1 8 Oeste 21 Sur 0 -- -- 88
2019-11-30 04:00:00 3.4 3 Sudeste 12 Sudeste 0 -- -- 92
2019-11-30 03:00:00 2.3 2 Norte 13 Nordeste 0 -- -- 94
2019-11-30 02:00:00 2.9 0 Calma 5 Sudoeste 0 -- -- 93
2019-11-30 01:00:00 3.4 0 Calma 6 Oeste 0 -- -- 91
2019-11-30 00:00:00 3.4 4 Noroeste 5 Noroeste 0 -- -- 89
2019-11-29 23:00:00 4.2 2 Oeste 9 Noroeste 0 -- -- 89
2019-11-29 22:00:00 5 2 Oeste 6 Sudoeste 0 -- -- 86
2019-11-29 21:00:00 6.3 3 Noroeste 5 Noroeste 0 -- -- 81
2019-11-29 20:00:00 7.5 0 Calma 7 Sur 0 -- -- 76
2019-11-29 19:00:00 8.3 3 Sudeste 11 Noroeste 0 -- -- 75
2019-11-29 18:00:00 9 10 Oeste 19 Oeste 0 -- -- 72
2019-11-29 17:00:00 10.8 14 Oeste 25 Noroeste 0 -- -- 65
2019-11-29 16:00:00 13.1 19 Noroeste 32 Noroeste 0 -- -- 58
2019-11-29 15:00:00 13.4 23 Noroeste 30 Noroeste 0 -- -- 56
2019-11-29 14:00:00 13.3 18 Noroeste 31 Noroeste 0 -- -- 58
2019-11-29 13:00:00 12.5 19 Norte 31 Norte 0 -- -- 64
2019-11-29 12:00:00 12.2 17 Norte 29 Norte 0 -- -- 67
2019-11-29 11:00:00 11.2 18 Norte 30 Norte 0 -- -- 72
2019-11-29 10:00:00 10.2 20 Noroeste 33 Noroeste 0.2 -- -- 76
2019-11-29 09:00:00 8.7 17 Norte 32 Noroeste 0 -- -- 96
2019-11-29 08:00:00 8 3 Nordeste 14 Norte 0 -- -- 97
2019-11-29 07:00:00 8.5 3 Sudoeste 8 Sur 0 -- -- 98
2019-11-29 06:00:00 8.6 4 Oeste 11 Noroeste 0 -- -- 97
2019-11-29 05:00:00 8.5 5 Noroeste 7 Noroeste 0 -- -- 96
2019-11-29 04:00:00 8.8 0 Calma 5 Nordeste 0 -- -- 96
2019-11-29 03:00:00 9 0 Calma 4 Oeste 0 -- -- 95
2019-11-29 02:00:00 9 2 Oeste 9 Sudoeste 0 -- -- 94
2019-11-29 01:00:00 9.1 5 Sudoeste 8 Sudoeste 0 -- -- 95
2019-11-29 00:00:00 9.2 5 Noroeste 10 Sudoeste 0 -- -- 93
2019-11-28 23:00:00 9.4 7 Noroeste 17 Sur 0 -- -- 92
2019-11-28 22:00:00 10.2 9 Sur 15 Sur 0 -- -- 86
2019-11-28 21:00:00 10.1 7 Sur 15 Sur 0 -- -- 89
2019-11-28 20:00:00 10 8 Sur 16 Sur 0.4 -- -- 91
2019-11-28 19:00:00 10 9 Sudoeste 23 Sur 0.6 -- -- 91
2019-11-28 18:00:00 10.2 8 Oeste 21 Sur 1.6 -- -- 89
2019-11-28 17:00:00 10.8 9 Sur 15 Sur 0 -- -- 85
2019-11-28 16:00:00 10.9 7 Sudeste 20 Sur 0 -- -- 86
2019-11-28 15:00:00 11.2 10 Sudoeste 13 Sudoeste 0 -- -- 84
2019-11-28 14:00:00 11.3 6 Sur 16 Sur 0 -- -- 83
2019-11-28 13:00:00 10.6 12 Sur 17 Sur 0 -- -- 84
2019-11-28 12:00:00 10.3 8 Sur 12 Sur 0 -- -- 83
2019-11-28 11:00:00 9.6 6 Sur 12 Sur 0 -- -- 87
2019-11-28 10:00:00 9 3 Sudoeste 6 Sur 0 -- -- 91
2019-11-28 09:00:00 8.1 5 Sudoeste 9 Sudoeste 0 -- -- 91
2019-11-28 08:00:00 7.9 4 Este 8 Sudeste 0 -- -- 91
2019-11-28 07:00:00 7.3 3 Sudoeste 11 Sudeste 0 -- -- 94
2019-11-28 06:00:00 7.1 6 Sur 8 Sudoeste 0 -- -- 97
2019-11-28 05:00:00 7 2 Norte 7 Sur 0 -- -- 96
2019-11-28 04:00:00 6.9 5 Sudoeste 8 Sudoeste 0 -- -- 97
2019-11-28 03:00:00 6.8 0 Calma 13 Sudoeste 0 -- -- 96
2019-11-28 02:00:00 7.1 10 Sudoeste 18 Sur 0 -- -- 97
2019-11-28 01:00:00 6.9 2 Noroeste 9 Noroeste 0 -- -- 97
2019-11-28 00:00:00 7.2 3 Oeste 8 Sudeste 0.2 -- -- 96
2019-11-27 23:00:00 7.4 3 Este 16 Noroeste 1 -- -- 96
2019-11-27 22:00:00 7.5 0 Calma 10 Norte 0.6 -- -- 95
2019-11-27 21:00:00 7.7 3 Oeste 8 Oeste 0.4 -- -- 94
2019-11-27 20:00:00 7.8 6 Sudeste 17 Oeste 0.8 -- -- 93
2019-11-27 19:00:00 8.3 12 Oeste 27 Oeste 0.8 -- -- 87
2019-11-27 18:00:00 9.1 11 Sudoeste 14 Sudoeste 0.2 -- -- 82
2019-11-27 17:00:00 9.9 6 Sudoeste 10 Sudoeste 0 -- -- 78
2019-11-27 16:00:00 10.8 5 Sur 10 Este 0 -- -- 73
2019-11-27 15:00:00 11.2 0 Calma 17 Norte 0 -- -- 69
2019-11-27 14:00:00 11.2 11 Norte 17 Norte 0 -- -- 69
2019-11-27 06:00:00 -- -- -- -- -- -- -- -- --
2019-11-27 05:00:00 9 3 Norte 12 Noroeste 0 -- -- 92
2019-11-27 04:00:00 9.4 4 Norte 26 Noroeste 0.8 -- -- 95
2019-11-27 03:00:00 9.8 6 Sudoeste 11 Este 0.2 -- -- 94
2019-11-27 02:00:00 10.3 11 Nordeste 40 Oeste 1 -- -- 91
2019-11-27 01:00:00 12.1 20 Oeste 49 Sudoeste 0 -- -- 81
2019-11-27 00:00:00 11.4 31 Sur 51 Sudoeste 0.2 -- -- 86
2019-11-26 23:00:00 11 30 Sur 40 Sur 4.2 -- -- 90
2019-11-26 22:00:00 12.5 28 Sur 46 Sur 0 -- -- 77
2019-11-26 21:00:00 12.7 32 Sur 51 Sur 0 -- -- 76
2019-11-26 20:00:00 13.1 33 Sur 46 Sur 0 -- -- 74
2019-11-26 19:00:00 13 33 Sur 51 Sur 0 -- -- 73
2019-11-26 18:00:00 11.7 24 Sur 32 Sur 0 -- -- 77
2019-11-26 17:00:00 12.2 12 Sudeste 27 Sur 0 -- -- 76
2019-11-26 16:00:00 13.7 13 Sur 26 Sur 0 -- -- 70
2019-11-26 15:00:00 13.3 13 Sudeste 23 Sur 0 -- -- 71
2019-11-26 14:00:00 12.8 12 Sur 26 Sudeste 0 -- -- 69
2019-11-26 13:00:00 12.4 10 Sur 18 Sudeste 0 -- -- 74
2019-11-26 12:00:00 10.8 10 Sur 22 Sur 0 -- -- 77
2019-11-26 11:00:00 9.8 3 Oeste 11 Sur 0 -- -- 92
2019-11-26 10:00:00 6.9 6 Este 12 Este 0 -- -- 99
2019-11-26 09:00:00 4.4 4 Sudeste 9 Sur 0 -- -- 98
2019-11-26 08:00:00 4 5 Noroeste 8 Noroeste 0 -- -- 97
2019-11-26 07:00:00 3.6 4 Oeste 8 Este 0 -- -- 98
2019-11-26 06:00:00 4.1 3 Noroeste 7 Oeste 0 -- -- 96
2019-11-26 05:00:00 3.6 0 Calma 9 Sudeste 0 -- -- 97
2019-11-26 04:00:00 3.9 4 Oeste 9 Noroeste 0 -- -- 97
2019-11-26 03:00:00 4.4 2 Sudoeste 8 Noroeste 0 -- -- 96
2019-11-26 02:00:00 5.4 4 Oeste 7 Noroeste 0 -- -- 96
2019-11-26 01:00:00 5.7 2 Este 4 Este 0 -- -- 94
2019-11-26 00:00:00 6.2 3 Oeste 5 Oeste 0 -- -- 94
2019-11-25 23:00:00 6.7 0 Calma 6 Oeste 0 -- -- 93
2019-11-25 22:00:00 7.1 0 Calma 7 Norte 0 -- -- 92
2019-11-25 21:00:00 7.7 4 Noroeste 7 Oeste 0 -- -- 89
2019-11-25 20:00:00 8.5 2 Este 6 Oeste 0 -- -- 88
2019-11-25 19:00:00 9.2 4 Sudoeste 8 Oeste 0 -- -- 84
2019-11-25 18:00:00 9.8 6 Oeste 8 Sudoeste 0 -- -- 83
2019-11-25 17:00:00 11.8 4 Norte 11 Nordeste 0 -- -- 78
2019-11-25 16:00:00 12.7 8 Nordeste 13 Norte 0 -- -- 74
2019-11-25 15:00:00 12.6 8 Nordeste 14 Nordeste 0 -- -- 75
2019-11-25 14:00:00 12.1 7 Oeste 10 Oeste 0 -- -- 76
2019-11-25 13:00:00 11.3 4 Norte 14 Nordeste 0 -- -- 80
2019-11-25 12:00:00 10.7 5 Sudeste 9 Este 0 -- -- 83
2019-11-25 11:00:00 8 2 Este 6 Sudeste 0 -- -- 95
2019-11-25 10:00:00 6.1 0 Calma 5 Este 0 -- -- 96
2019-11-25 09:00:00 5.5 2 Oeste 5 Oeste 0 -- -- 96
2019-11-25 08:00:00 5.4 3 Sudeste 5 Este 0 -- -- 96
2019-11-25 07:00:00 5.2 0 Calma 6 Sudoeste 0 -- -- 97
2019-11-25 06:00:00 4.8 0 Calma 4 Sudeste 0 -- -- 97
2019-11-25 05:00:00 4.9 3 Nordeste 5 Este 0 -- -- 96
2019-11-25 04:00:00 4.8 0 Calma 9 Oeste 0 -- -- 97
2019-11-25 03:00:00 4.5 2 Sudoeste 5 Oeste 0 -- -- 96
2019-11-25 02:00:00 4.6 6 Este 10 Oeste 0 -- -- 96
2019-11-25 01:00:00 4.7 7 Oeste 11 Oeste 0.4 -- -- 95
2019-11-25 00:00:00 4.3 5 Sudoeste 6 Sudoeste 0.2 -- -- 94
2019-11-24 23:00:00 4.4 6 Noroeste 10 Sur 0 -- -- 92
2019-11-24 22:00:00 4.6 2 Sudoeste 6 Noroeste 0 -- -- 93
2019-11-24 21:00:00 4.4 5 Oeste 9 Sudoeste 0 -- -- 90
2019-11-24 20:00:00 5.2 6 Sudoeste 9 Sudoeste 0 -- -- 89
2019-11-24 19:00:00 6.1 4 Sur 11 Sudeste 0 -- -- 86
2019-11-24 18:00:00 7 6 Noroeste 20 Noroeste 0 -- -- 82
2019-11-24 17:00:00 7.8 12 Noroeste 32 Noroeste 0 -- -- 77
2019-11-24 16:00:00 7.8 25 Noroeste 43 Noroeste 0 -- -- 77
2019-11-24 15:00:00 7.9 33 Noroeste 46 Noroeste 0 -- -- 77
2019-11-24 14:00:00 8 27 Noroeste 43 Noroeste 0 -- -- 75
2019-11-24 13:00:00 8.2 31 Noroeste 42 Noroeste 0 -- -- 76
2019-11-24 12:00:00 7.7 28 Oeste 35 Oeste 0 -- -- 78
2019-11-24 11:00:00 6.7 16 Noroeste 23 Noroeste 0 -- -- 84
2019-11-24 10:00:00 4.5 5 Norte 15 Norte 0 -- -- 94
2019-11-24 09:00:00 3.9 12 Norte 16 Noroeste 0.2 -- -- 94
2019-11-24 08:00:00 3.8 7 Noroeste 14 Noroeste 0 -- -- 93
2019-11-24 07:00:00 4 9 Noroeste 17 Noroeste 0 -- -- 93
2019-11-24 06:00:00 4.2 9 Norte 33 Noroeste 0.2 -- -- 92
2019-11-24 05:00:00 4.6 18 Noroeste 30 Noroeste 0 -- -- 93
2019-11-24 04:00:00 4.3 5 Noroeste 16 Norte 0 -- -- 95
2019-11-24 03:00:00 4.2 8 Norte 22 Norte 0 -- -- 94
2019-11-24 02:00:00 4.2 17 Noroeste 25 Noroeste 0 -- -- 93
2019-11-24 01:00:00 4.9 10 Norte 23 Norte 0 -- -- 94
2019-11-24 00:00:00 4.9 17 Norte 24 Norte 0 -- -- 92
2019-11-23 23:00:00 4.7 12 Noroeste 25 Noroeste 0.2 -- -- 92
2019-11-23 22:00:00 4.9 21 Noroeste 40 Noroeste 0 -- -- 92
2019-11-23 21:00:00 4.5 17 Noroeste 26 Noroeste 0 -- -- 93
2019-11-23 20:00:00 5.2 18 Norte 31 Noroeste 0.2 -- -- 91
2019-11-23 19:00:00 5.4 25 Norte 40 Noroeste 0.4 -- -- 90
2019-11-23 18:00:00 5.2 16 Noroeste 42 Noroeste 0.8 -- -- 92
2019-11-23 17:00:00 6.3 29 Noroeste 43 Norte 0.2 -- -- 82
2019-11-23 16:00:00 5.7 22 Noroeste 37 Noroeste 0.4 -- -- 93
2019-11-23 15:00:00 5 18 Norte 28 Norte 0.8 -- -- 95
2019-11-23 14:00:00 4.7 14 Norte 25 Norte 0.2 -- -- 94
2019-11-23 13:00:00 4.4 15 Nordeste 25 Norte 1.4 -- -- 94
2019-11-23 12:00:00 5 17 Norte 30 Noroeste 0.6 -- -- 92
2019-11-23 11:00:00 5.3 17 Noroeste 37 Noroeste 0.4 -- -- 91
2019-11-23 10:00:00 5.1 25 Noroeste 38 Oeste 0.2 -- -- 91
2019-11-23 09:00:00 4.6 3 Sudeste 10 Noroeste 0.4 -- -- 94
2019-11-23 08:00:00 4.5 12 Noroeste 53 Oeste 2 -- -- 91
2019-11-23 07:00:00 5.8 35 Oeste 50 Oeste 0.4 -- -- 85
2019-11-23 06:00:00 7.3 10 Sur 19 Este 0 -- -- 83
2019-11-23 05:00:00 7.8 14 Sudoeste 39 Sudoeste 0 -- -- 81
2019-11-23 04:00:00 8.3 26 Sudoeste 37 Sudoeste 0 -- -- 79
2019-11-23 03:00:00 8.2 8 Sudeste 22 Sur 0 -- -- 80
2019-11-23 02:00:00 8.2 12 Sudoeste 28 Sudoeste 0 -- -- 82
2019-11-23 01:00:00 8.3 24 Sudoeste 42 Sudoeste 0 -- -- 83
2019-11-23 00:00:00 8.6 23 Sudoeste 36 Sur 0 -- -- 83
2019-11-22 23:00:00 8.2 18 Sudoeste 39 Sudoeste 0.4 -- -- 85
2019-11-22 22:00:00 7.7 24 Sudoeste 44 Oeste 7 -- -- 90
2019-11-22 21:00:00 8.5 21 Sudeste 39 Sudeste 1 -- -- 91
2019-11-22 20:00:00 8.2 19 Sudeste 32 Sudeste 1 -- -- 90
2019-11-22 19:00:00 7.5 12 Sur 32 Sudeste 2.4 -- -- 92
2019-11-22 18:00:00 7.1 15 Sudeste 33 Sur 3.6 -- -- 93
2019-11-22 17:00:00 6.9 22 Sur 44 Sudeste 3 -- -- 91
2019-11-22 16:00:00 6.8 23 Sur 41 Sudeste 3.2 -- -- 92
2019-11-22 15:00:00 7.3 25 Sudeste 54 Sudeste 0.6 -- -- 88
2019-11-22 14:00:00 7.2 29 Sudeste 57 Sudeste 0.6 -- -- 87
2019-11-22 13:00:00 7.1 37 Sudeste 52 Sudeste 1.2 -- -- 86
2019-11-22 12:00:00 6.9 28 Sudeste 48 Sudeste 2.2 -- -- 87
2019-11-22 11:00:00 7 16 Sur 36 Sudeste 0.4 -- -- 87
2019-11-22 10:00:00 6.9 25 Sudeste 40 Sudeste 0 -- -- 82
2019-11-22 09:00:00 6.3 17 Sur 31 Sudeste 0 -- -- 81
2019-11-22 08:00:00 6.7 18 Sur 34 Sur 0 -- -- 77
2019-11-22 07:00:00 6.6 18 Sur 33 Sudeste 0 -- -- 78
2019-11-22 06:00:00 6.3 21 Sudeste 32 Sudeste 0 -- -- 79
2019-11-22 05:00:00 5.7 22 Sur 35 Sur 0 -- -- 81
2019-11-22 04:00:00 5.2 19 Sur 27 Sudoeste 0 -- -- 84
2019-11-22 03:00:00 5.7 15 Sur 27 Sur 0 -- -- 82
2019-11-22 02:00:00 6 24 Sur 34 Sur 0 -- -- 81
2019-11-22 01:00:00 5.9 22 Sur 30 Sur 0 -- -- 81
2019-11-22 00:00:00 6 21 Sur 30 Sur 0 -- -- 81
2019-11-21 23:00:00 5.7 18 Sur 23 Sur 0 -- -- 83
2019-11-21 22:00:00 5.2 8 Sudeste 15 Sur 0 -- -- 85
2019-11-21 21:00:00 5.7 11 Sur 15 Sur 0 -- -- 83
2019-11-21 20:00:00 6.8 9 Sur 17 Sur 0 -- -- 80
2019-11-21 19:00:00 6.9 12 Sur 17 Sur 0 -- -- 80
2019-11-21 18:00:00 7.2 13 Sudoeste 15 Sudoeste 0 -- -- 79
2019-11-21 17:00:00 8.2 11 Sur 19 Sur 0 -- -- 75
2019-11-21 16:00:00 8.4 11 Sudeste 19 Sur 0 -- -- 76
2019-11-21 15:00:00 8.9 5 Sur 21 Sudeste 0 -- -- 73
2019-11-21 14:00:00 8.8 12 Sur 22 Sudeste 0 -- -- 71
2019-11-21 13:00:00 8.6 11 Sur 18 Sur 0 -- -- 76
2019-11-21 12:00:00 6.8 9 Sur 26 Sur 0 -- -- 81
2019-11-21 11:00:00 6.1 14 Sur 24 Sur 0 -- -- 82
2019-11-21 10:00:00 5.4 14 Sur 19 Sur 0 -- -- 80
2019-11-21 09:00:00 4.6 13 Sur 22 Sur 0 -- -- 84
2019-11-21 08:00:00 -- -- -- -- -- -- -- -- --
2019-11-21 07:00:00 -- -- -- -- -- -- -- -- --
2019-11-21 06:00:00 -- -- -- -- -- -- -- -- --
2019-11-21 05:00:00 -- -- -- -- -- -- -- -- --
2019-11-21 04:00:00 -- -- -- -- -- -- -- -- --
2019-11-21 03:00:00 -- -- -- -- -- -- -- -- --
2019-11-21 02:00:00 -- -- -- -- -- -- -- -- --
2019-11-21 01:00:00 -- -- -- -- -- -- -- -- --
2019-11-21 00:00:00 -- -- -- -- -- -- -- -- --
2019-11-20 23:00:00 -- -- -- -- -- -- -- -- --
2019-11-20 22:00:00 -- -- -- -- -- -- -- -- --
2019-11-20 21:00:00 5.7 15 Sur 22 Sur 0 -- -- 68
2019-11-20 20:00:00 5.8 14 Sur 22 Sur 0 -- -- 67
2019-11-20 19:00:00 5.4 6 Sudeste 16 Sur 0 -- -- 72
2019-11-20 18:00:00 6.2 10 Sur 27 Sur 0 -- -- 68
2019-11-20 17:00:00 6.9 19 Sur 27 Sudoeste 0 -- -- 65
2019-11-20 16:00:00 8.4 16 Sur 27 Sur 0 -- -- 61
2019-11-20 15:00:00 8.4 13 Sudeste 28 Sudeste 0 -- -- 61
2019-11-20 14:00:00 8.1 15 Sur 24 Sur 0 -- -- 66
2019-11-20 13:00:00 7.4 14 Sur 24 Sudeste 0 -- -- 67
2019-11-20 12:00:00 5.7 14 Sur 26 Sur 0 -- -- 67
2019-11-20 11:00:00 3.8 16 Sur 27 Sur 0 -- -- 70
2019-11-20 10:00:00 2.1 17 Sur 27 Sur 0 -- -- 74
2019-11-20 09:00:00 1.4 13 Sur 21 Sur 0 -- -- 77
2019-11-20 08:00:00 0.1 11 Sur 18 Sur 0 -- -- 84
2019-11-20 07:00:00 0.6 13 Sur 23 Sudeste 0 -- -- 83
2019-11-20 06:00:00 1.3 15 Sudeste 25 Sudeste 0 -- -- 82
2019-11-20 05:00:00 0.6 17 Sudeste 23 Sudeste 0 -- -- 82
2019-11-20 04:00:00 0.6 13 Sur 18 Sur 0 -- -- 84
2019-11-20 03:00:00 -0.7 3 Norte 10 Sur 0 -- -- 89
2019-11-20 02:00:00 -0.3 3 Sudeste 8 Sur 0 -- -- 88
2019-11-20 01:00:00 -0.6 0 Calma 4 Oeste 0 -- -- 89
2019-11-20 00:00:00 -0.2 2 Noroeste 6 Noroeste 0 -- -- 88
2019-11-19 23:00:00 0.4 3 Nordeste 8 Sudoeste 0 -- -- 86
2019-11-19 22:00:00 0.9 2 Nordeste 9 Oeste 0 -- -- 83
2019-11-19 21:00:00 2 0 Calma 6 Noroeste 0 -- -- 79
2019-11-19 20:00:00 2.8 2 Oeste 7 Sudoeste 0 -- -- 73
2019-11-19 19:00:00 3.5 3 Sur 8 Sudoeste 0 -- -- 71
2019-11-19 18:00:00 4.5 9 Sudoeste 10 Sudoeste 0 -- -- 66
2019-11-19 17:00:00 6.6 4 Sudoeste 11 Este 0 -- -- 61
2019-11-19 16:00:00 9.2 5 Norte 12 Noroeste 0 -- -- 50
2019-11-19 15:00:00 8.2 4 Norte 11 Oeste 0 -- -- 52
2019-11-19 14:00:00 7.7 4 Nordeste 13 Este 0 -- -- 55
2019-11-19 13:00:00 6.6 3 Nordeste 8 Sudeste 0 -- -- 58
2019-11-19 12:00:00 5.7 6 Sudeste 10 Sudeste 0 -- -- 59
2019-11-19 11:00:00 3.9 4 Sudeste 7 Sudeste 0 -- -- 72
2019-11-19 10:00:00 0.9 3 Este 7 Noroeste 0 -- -- 84
2019-11-19 09:00:00 0.1 4 Sudeste 6 Sudeste 0 -- -- 86
2019-11-19 08:00:00 -1.3 3 Sudoeste 8 Sudoeste 0 -- -- 83
2019-11-19 07:00:00 -0.1 4 Sudoeste 8 Sudoeste 0 -- -- 81
2019-11-19 06:00:00 0 4 Sudeste 7 Sudeste 0 -- -- 80
2019-11-19 05:00:00 0.5 3 Sudeste 6 Sudoeste 0 -- -- 78
2019-11-19 04:00:00 -0.8 3 Oeste 6 Sudoeste 0 -- -- 83
2019-11-19 03:00:00 0.9 3 Sudeste 9 Sudoeste 0 -- -- 73
2019-11-19 02:00:00 0.7 4 Sur 9 Sudeste 0 -- -- 73
2019-11-19 01:00:00 0.7 6 Sudoeste 9 Sudoeste 0 -- -- 72
2019-11-19 00:00:00 1.5 4 Este 10 Noroeste 0 -- -- 69
2019-11-18 23:00:00 2 7 Norte 25 Noroeste 0 -- -- 68
2019-11-18 22:00:00 2 17 Noroeste 33 Noroeste 0 -- -- 70
2019-11-18 21:00:00 2.1 22 Noroeste 34 Noroeste 0 -- -- 71
2019-11-18 20:00:00 2.3 21 Noroeste 34 Noroeste 0 -- -- 71
2019-11-18 19:00:00 2.4 17 Noroeste 31 Norte 0 -- -- 72
2019-11-18 18:00:00 3 19 Noroeste 38 Noroeste 0 -- -- 67
2019-11-18 17:00:00 4 26 Noroeste 47 Noroeste 0 -- -- 67
2019-11-18 16:00:00 5.1 33 Noroeste 52 Norte 0 -- -- 63
2019-11-18 15:00:00 5.9 31 Noroeste 49 Noroeste 0 -- -- 63
2019-11-18 14:00:00 5.2 31 Noroeste 49 Noroeste 0 -- -- 64
2019-11-18 13:00:00 4.7 25 Noroeste 38 Noroeste 0 -- -- 67
2019-11-18 12:00:00 5.1 27 Noroeste 41 Noroeste 0 -- -- 66
2019-11-18 11:00:00 4.7 27 Noroeste 44 Noroeste 0 -- -- 66
2019-11-18 10:00:00 4.4 23 Noroeste 44 Noroeste 0 -- -- 68
2019-11-18 09:00:00 2.9 25 Noroeste 40 Noroeste 0 -- -- 75
2019-11-18 08:00:00 2.8 28 Noroeste 45 Norte 0 -- -- 77
2019-11-18 07:00:00 3.1 31 Noroeste 44 Noroeste 0 -- -- 83
2019-11-18 06:00:00 3.3 26 Noroeste 36 Noroeste 0 -- -- 89
2019-11-18 05:00:00 3.8 22 Noroeste 33 Noroeste 0 -- -- 94
2019-11-18 04:00:00 2.8 10 Noroeste 19 Noroeste 0.2 -- -- 99
2019-11-18 03:00:00 3.1 3 Oeste 9 Noroeste 0 -- -- 99
2019-11-18 02:00:00 2.9 5 Norte 9 Norte 0.4 -- -- 98
2019-11-18 01:00:00 3 3 Nordeste 6 Noroeste 0 -- -- 98
2019-11-18 00:00:00 2.7 3 Sudoeste 9 Sudeste 0 -- -- 98
2019-11-17 23:00:00 2.6 2 Este 5 Noroeste 0 -- -- 98
2019-11-17 22:00:00 3.1 4 Noroeste 8 Sudeste 0 -- -- 97
2019-11-17 21:00:00 3.6 4 Sudeste 9 Noroeste 0 -- -- 97
2019-11-17 20:00:00 3.6 4 Oeste 6 Oeste 0 -- -- 97
2019-11-17 19:00:00 4.2 0 Calma 8 Noroeste 0 -- -- 97
2019-11-17 18:00:00 4.3 8 Norte 10 Norte 0 -- -- 96
2019-11-17 17:00:00 4.7 0 Calma 4 Oeste 0 -- -- 95
2019-11-17 16:00:00 4.7 3 Oeste 7 Norte 0.2 -- -- 96
2019-11-17 15:00:00 4.8 4 Norte 6 Noroeste 0.2 -- -- 95
2019-11-17 14:00:00 4.7 3 Norte 8 Nordeste 0.2 -- -- 95
2019-11-17 13:00:00 4.1 4 Nordeste 10 Este 0.2 -- -- 96
2019-11-17 12:00:00 3.5 4 Este 7 Este 0 -- -- 97
2019-11-17 11:00:00 3.1 2 Nordeste 10 Este 0 -- -- 98
2019-11-17 10:00:00 2.9 8 Este 10 Este 0 -- -- 99
2019-11-17 09:00:00 1.8 5 Sudeste 8 Sudeste 0 -- -- 99
2019-11-17 08:00:00 1.2 4 Sur 8 Sudeste 0 -- -- 98
2019-11-17 07:00:00 1.1 3 Sur 5 Sur 0 -- -- 98
2019-11-17 06:00:00 1.1 3 Sudeste 5 Este 0 -- -- 98
2019-11-17 05:00:00 1.1 3 Oeste 5 Este 0 -- -- 98
2019-11-17 04:00:00 1.2 4 Oeste 8 Oeste 0 -- -- 98
2019-11-17 03:00:00 1 5 Noroeste 8 Noroeste 0 -- -- 99
2019-11-17 02:00:00 0.7 3 Sudoeste 5 Oeste 0.2 -- -- 98
2019-11-17 01:00:00 0.6 3 Oeste 5 Sudoeste 0 -- -- 98
2019-11-17 00:00:00 0.3 3 Nordeste 6 Noroeste 0 -- -- 98
2019-11-16 23:00:00 0.1 3 Sudoeste 5 Este 0 -- -- 98
2019-11-16 22:00:00 0.3 6 Noroeste 8 Noroeste 0 -- -- 98
2019-11-16 21:00:00 0 2 Este 6 Oeste 0 -- -- 98
2019-11-16 20:00:00 0 4 Noroeste 6 Oeste 0 -- -- 97
2019-11-16 19:00:00 0 3 Noroeste 6 Noroeste 0.4 -- -- 97
2019-11-16 18:00:00 0.4 2 Sur 5 Sur 0.2 -- -- 97
2019-11-16 17:00:00 0.3 0 Calma 3 Oeste 0.8 -- -- 97
2019-11-16 16:00:00 0.2 0 Calma 3 Sudeste 1.4 -- -- 97
2019-11-16 15:00:00 0.7 2 Sudeste 8 Sudeste 1.4 -- -- 96
2019-11-16 14:00:00 0.3 6 Sudeste 8 Sudeste 1.8 -- -- 96
2019-11-16 13:00:00 0.8 0 Calma 5 Este 1 -- -- 94
2019-11-16 12:00:00 1.1 4 Este 6 Noroeste 0 -- -- 94
2019-11-16 11:00:00 0.8 4 Nordeste 7 Este 0 -- -- 94
2019-11-16 10:00:00 0 2 Nordeste 5 Este 0 -- -- 94
2019-11-16 09:00:00 0.3 3 Sudoeste 8 Sudoeste 0 -- -- 96
2019-11-16 08:00:00 -0.5 3 Sur 8 Sudoeste 0 -- -- 95
2019-11-16 07:00:00 -1.5 0 Calma 4 Oeste 0 -- -- 94
2019-11-16 06:00:00 -1.3 5 Oeste 6 Oeste 0 -- -- 91
2019-11-16 05:00:00 -0.7 3 Este 6 Sudeste 0 -- -- 91
2019-11-16 04:00:00 -0.3 5 Sur 8 Sur 0 -- -- 92
2019-11-16 03:00:00 0.1 3 Sudeste 6 Sur 0 -- -- 93
2019-11-16 02:00:00 0 0 Calma 6 Sudoeste 0 -- -- 92
2019-11-16 01:00:00 0.6 2 Sur 8 Nordeste 0 -- -- 90
2019-11-16 00:00:00 1.2 3 Nordeste 25 Oeste 0 -- -- 86
2019-11-15 23:00:00 2.5 21 Noroeste 28 Noroeste 0 -- -- 80
2019-11-15 22:00:00 2.5 17 Noroeste 24 Noroeste 0 -- -- 82
2019-11-15 21:00:00 2.7 16 Oeste 22 Noroeste 0 -- -- 84
2019-11-15 20:00:00 2.2 7 Noroeste 18 Noroeste 0 -- -- 88
2019-11-15 19:00:00 2.2 5 Noroeste 20 Noroeste 0 -- -- 86
2019-11-15 18:00:00 2.3 14 Noroeste 26 Oeste 0 -- -- 85
2019-11-15 17:00:00 3.2 18 Noroeste 37 Noroeste 0 -- -- 85
2019-11-15 16:00:00 4.2 27 Noroeste 40 Noroeste 0 -- -- 80
2019-11-15 15:00:00 2.9 5 Nordeste 11 Norte 0 -- -- 96
2019-11-15 14:00:00 1.1 2 Noroeste 6 Este 0.4 -- -- 95
2019-11-15 13:00:00 0.7 0 Calma 13 Sudeste 3.2 -- -- 93
2019-11-15 12:00:00 2.3 8 Sur 14 Sudeste 0.8 -- -- 93
2019-11-15 11:00:00 2.5 4 Sudeste 9 Este 0.2 -- -- 95
2019-11-15 10:00:00 1.6 3 Este 11 Sudeste 0.4 -- -- 95
2019-11-15 09:00:00 1.4 4 Sudeste 8 Sudeste 0.8 -- -- 94
2019-11-15 08:00:00 1.5 4 Sudoeste 8 Sudoeste 0 -- -- 95
2019-11-15 07:00:00 0.7 2 Sudeste 8 Noroeste 0 -- -- 95
2019-11-15 06:00:00 0.9 0 Calma 6 Sudeste 0 -- -- 94
2019-11-15 05:00:00 0.9 4 Sudeste 8 Sur 0 -- -- 95
2019-11-15 04:00:00 -0.2 3 Sudoeste 10 Noroeste 0 -- -- 95
2019-11-15 03:00:00 0.4 0 Calma 11 Sudeste 0 -- -- 93
2019-11-15 02:00:00 -0.3 5 Sur 6 Sur 0 -- -- 95
2019-11-15 01:00:00 -0.7 4 Oeste 6 Oeste 0 -- -- 93
2019-11-15 00:00:00 0.1 0 Calma 5 Oeste 0 -- -- 91
2019-11-14 23:00:00 0.2 4 Noroeste 6 Noroeste 0 -- -- 92
2019-11-14 22:00:00 0.5 4 Nordeste 8 Nordeste 0 -- -- 88
2019-11-14 21:00:00 1.2 3 Sudoeste 6 Sudoeste 0 -- -- 87
2019-11-14 20:00:00 1.3 4 Oeste 7 Sudoeste 0 -- -- 83
2019-11-14 19:00:00 2.7 0 Calma 6 Sudoeste 0 -- -- 77
2019-11-14 18:00:00 3.6 0 Calma 15 Oeste 0 -- -- 75
2019-11-14 17:00:00 4.7 10 Oeste 30 Noroeste 0 -- -- 71
2019-11-14 16:00:00 6.9 12 Oeste 29 Oeste 0 -- -- 62
2019-11-14 15:00:00 6.2 19 Oeste 35 Oeste 0 -- -- 65
2019-11-14 14:00:00 6.9 13 Noroeste 28 Noroeste 0 -- -- 66
2019-11-14 13:00:00 5.5 14 Noroeste 30 Noroeste 0 -- -- 73
2019-11-14 12:00:00 4.9 11 Noroeste 31 Noroeste 0.2 -- -- 77
2019-11-14 11:00:00 4.1 19 Noroeste 28 Noroeste 0 -- -- 83
2019-11-14 10:00:00 2.6 15 Oeste 23 Oeste 0 -- -- 90
2019-11-14 09:00:00 2.2 12 Oeste 23 Noroeste 0 -- -- 93
2019-11-14 08:00:00 2.2 14 Noroeste 33 Noroeste 1.6 -- -- 94
2019-11-14 07:00:00 2.8 25 Noroeste 37 Noroeste 3.2 -- -- 93
2019-11-14 06:00:00 5.1 15 Noroeste 23 Noroeste 1.2 -- -- 92
2019-11-14 05:00:00 5.5 11 Sur 22 Sur 1 -- -- 88
2019-11-14 04:00:00 6 13 Sudoeste 24 Sudoeste 0.2 -- -- 85
2019-11-14 03:00:00 7 14 Sudoeste 24 Sudoeste 0 -- -- 75
2019-11-14 02:00:00 6.8 18 Sudoeste 30 Sur 0 -- -- 73
2019-11-14 01:00:00 6 10 Sur 14 Sur 0 -- -- 73
2019-11-14 00:00:00 6 8 Sur 21 Sur 0 -- -- 72
2019-11-13 23:00:00 5.8 15 Sur 27 Sur 0 -- -- 71
2019-11-13 22:00:00 6.5 18 Sur 27 Sur 0 -- -- 68
2019-11-13 21:00:00 5.6 10 Sur 17 Sudeste 0 -- -- 75
2019-11-13 20:00:00 5.5 5 Sudoeste 12 Oeste 0 -- -- 77
2019-11-13 19:00:00 5.1 10 Noroeste 14 Oeste 0 -- -- 78
2019-11-13 18:00:00 6.8 8 Noroeste 26 Norte 0 -- -- 69
2019-11-13 17:00:00 8.2 18 Norte 32 Norte 0 -- -- 62
2019-11-13 16:00:00 8.7 21 Norte 37 Norte 0 -- -- 65
2019-11-13 15:00:00 9.7 20 Norte 41 Noroeste 0 -- -- 63
2019-11-13 14:00:00 10.3 28 Noroeste 49 Noroeste 0 -- -- 59
2019-11-13 13:00:00 10.2 32 Norte 50 Norte 0 -- -- 57
2019-11-13 12:00:00 10.4 36 Norte 57 Norte 0 -- -- 61
2019-11-13 11:00:00 10.4 39 Noroeste 52 Noroeste 0 -- -- 62
2019-11-13 10:00:00 8 18 Noroeste 27 Noroeste 0 -- -- 80
2019-11-13 09:00:00 5.2 3 Sur 6 Este 0 -- -- 96
2019-11-13 08:00:00 4.9 4 Este 8 Este 0 -- -- 94
2019-11-13 07:00:00 5.1 3 Sudeste 6 Noroeste 0 -- -- 94
2019-11-13 06:00:00 5.2 5 Noroeste 10 Noroeste 0 -- -- 94
2019-11-13 05:00:00 5.5 5 Noroeste 8 Noroeste 0 -- -- 93
2019-11-13 04:00:00 5.8 5 Noroeste 6 Noroeste 0 -- -- 92
2019-11-13 03:00:00 6 0 Calma 6 Noroeste 0 -- -- 91
2019-11-13 02:00:00 6.5 3 Sur 6 Sudoeste 0 -- -- 87
2019-11-13 01:00:00 6.2 5 Sudoeste 8 Sudoeste 0 -- -- 89
2019-11-13 00:00:00 6.2 4 Sur 6 Sudoeste 0 -- -- 87
2019-11-12 23:00:00 6.3 3 Sur 8 Oeste 0 -- -- 87
2019-11-12 22:00:00 6.5 6 Noroeste 9 Noroeste 0 -- -- 86
2019-11-12 21:00:00 6.8 5 Oeste 15 Norte 0 -- -- 84
2019-11-12 20:00:00 7.4 11 Norte 24 Noroeste 0 -- -- 79
2019-11-12 19:00:00 7.4 10 Noroeste 18 Noroeste 0 -- -- 80
2019-11-12 18:00:00 7.6 12 Noroeste 21 Noroeste 0 -- -- 79
2019-11-12 17:00:00 7.5 13 Norte 28 Noroeste 0 -- -- 82
2019-11-12 16:00:00 8.4 20 Norte 31 Noroeste 0 -- -- 76
2019-11-12 15:00:00 8.6 19 Noroeste 34 Norte 0 -- -- 73
2019-11-12 14:00:00 8.6 19 Noroeste 44 Norte 0 -- -- 72
2019-11-12 13:00:00 9.1 28 Norte 42 Norte 0 -- -- 69
2019-11-12 12:00:00 9.4 23 Noroeste 43 Norte 0 -- -- 70
2019-11-12 11:00:00 8.1 30 Noroeste 41 Noroeste 0 -- -- 72
2019-11-12 10:00:00 7.4 19 Noroeste -- -- -- -- -- 75
2019-11-12 09:00:00 -- -- -- -- -- -- -- -- --
2019-11-12 08:00:00 -- -- -- -- -- -- -- -- --
2019-11-12 07:00:00 -- -- -- -- -- -- -- -- --
2019-11-12 06:00:00 5.3 23 Noroeste 32 Noroeste 0 -- -- 79
2019-11-12 05:00:00 5.1 24 Noroeste 38 Noroeste 0 -- -- 78
2019-11-12 04:00:00 5 25 Noroeste 47 Noroeste 0 -- -- 80
2019-11-12 03:00:00 5.1 24 Noroeste 38 Norte 0 -- -- 71
2019-11-12 02:00:00 5.3 31 Noroeste 49 Noroeste 0 -- -- 69
2019-11-12 01:00:00 5.4 35 Noroeste 50 Noroeste 0 -- -- 73
2019-11-12 00:00:00 5.3 31 Noroeste 50 Noroeste 0 -- -- 76
2019-11-11 23:00:00 5.5 33 Noroeste 47 Noroeste 0 -- -- 73
2019-11-11 22:00:00 5.5 30 Noroeste 47 Noroeste 0 -- -- 76
2019-11-11 21:00:00 5.7 27 Noroeste 56 Noroeste 0 -- -- 67
2019-11-11 20:00:00 6 32 Noroeste 53 Noroeste 0 -- -- 71
2019-11-11 19:00:00 6.1 31 Noroeste 54 Noroeste 0 -- -- 70
2019-11-11 18:00:00 6.5 31 Noroeste 60 Noroeste 0 -- -- 78
2019-11-11 17:00:00 7.3 38 Noroeste 55 Noroeste 0.2 -- -- 77
2019-11-11 16:00:00 7.3 30 Noroeste 43 Noroeste 0 -- -- 87
2019-11-11 15:00:00 6.8 17 Norte 31 Norte 0.2 -- -- 93
2019-11-11 14:00:00 6.6 21 Norte 38 Noroeste 0.6 -- -- 90
2019-11-11 13:00:00 8 23 Noroeste 30 Noroeste 0 -- -- 76
2019-11-11 12:00:00 7.9 5 Nordeste 13 Norte 0 -- -- 74
2019-11-11 11:00:00 6.9 4 Nordeste 9 Este 0 -- -- 71
2019-11-11 10:00:00 5.1 4 Este 9 Nordeste 0 -- -- 80
2019-11-11 09:00:00 4.5 5 Nordeste 16 Oeste 0 -- -- 80
2019-11-11 08:00:00 4.6 6 Noroeste 21 Noroeste 0 -- -- 77
2019-11-11 07:00:00 3.8 4 Nordeste 12 Este 0 -- -- 80
2019-11-11 06:00:00 4.6 10 Noroeste 24 Oeste 0 -- -- 76
2019-11-11 05:00:00 4.7 17 Noroeste 33 Noroeste 0 -- -- 76
2019-11-11 04:00:00 4.5 19 Noroeste 37 Noroeste 0 -- -- 76
2019-11-11 03:00:00 4.6 25 Noroeste 39 Noroeste 0 -- -- 75
2019-11-11 02:00:00 3.6 19 Noroeste 31 Norte 0 -- -- 77
2019-11-11 01:00:00 3.5 18 Noroeste 28 Noroeste 0 -- -- 78
2019-11-11 00:00:00 3.2 17 Noroeste 29 Noroeste 0 -- -- 78